sensor_id;sensor_type;location;lat;lon;timestamp;temperature;humidity
36424;DHT22;22458;45.328;9.514;2023-07-20T00:01:48;29.20;74.80
36424;DHT22;22458;45.328;9.514;2023-07-20T00:04:14;29.10;74.80
36424;DHT22;22458;45.328;9.514;2023-07-20T00:06:40;29.10;75.00
36424;DHT22;22458;45.328;9.514;2023-07-20T00:09:07;29.00;75.20
36424;DHT22;22458;45.328;9.514;2023-07-20T00:11:36;28.90;75.40
36424;DHT22;22458;45.328;9.514;2023-07-20T00:14:06;28.90;75.70
36424;DHT22;22458;45.328;9.514;2023-07-20T00:16:32;28.80;75.90
36424;DHT22;22458;45.328;9.514;2023-07-20T00:18:58;28.70;76.00
36424;DHT22;22458;45.328;9.514;2023-07-20T00:21:24;28.60;76.30
36424;DHT22;22458;45.328;9.514;2023-07-20T00:23:50;28.60;76.70
36424;DHT22;22458;45.328;9.514;2023-07-20T00:26:16;28.60;77.00
36424;DHT22;22458;45.328;9.514;2023-07-20T00:28:43;28.50;77.20
36424;DHT22;22458;45.328;9.514;2023-07-20T00:31:09;28.50;77.30
36424;DHT22;22458;45.328;9.514;2023-07-20T00:33:36;28.50;77.50
36424;DHT22;22458;45.328;9.514;2023-07-20T00:36:01;28.40;77.70
36424;DHT22;22458;45.328;9.514;2023-07-20T00:38:27;28.40;78.00
36424;DHT22;22458;45.328;9.514;2023-07-20T00:40:53;28.30;78.10
36424;DHT22;22458;45.328;9.514;2023-07-20T00:43:19;28.30;78.30
36424;DHT22;22458;45.328;9.514;2023-07-20T00:45:45;28.20;78.50
36424;DHT22;22458;45.328;9.514;2023-07-20T00:48:11;28.10;78.90
36424;DHT22;22458;45.328;9.514;2023-07-20T00:50:39;28.10;79.00
36424;DHT22;22458;45.328;9.514;2023-07-20T00:53:06;28.00;79.20
36424;DHT22;22458;45.328;9.514;2023-07-20T00:55:32;28.00;79.50
36424;DHT22;22458;45.328;9.514;2023-07-20T00:57:59;27.90;79.60
36424;DHT22;22458;45.328;9.514;2023-07-20T01:00:25;27.90;79.90
36424;DHT22;22458;45.328;9.514;2023-07-20T01:02:51;27.80;80.10
36424;DHT22;22458;45.328;9.514;2023-07-20T01:05:17;27.70;80.40
36424;DHT22;22458;45.328;9.514;2023-07-20T01:07:46;27.70;80.60
36424;DHT22;22458;45.328;9.514;2023-07-20T01:10:38;27.60;80.80
36424;DHT22;22458;45.328;9.514;2023-07-20T01:13:07;27.60;81.00
36424;DHT22;22458;45.328;9.514;2023-07-20T01:15:34;27.50;81.20
36424;DHT22;22458;45.328;9.514;2023-07-20T01:18:00;27.50;81.30
36424;DHT22;22458;45.328;9.514;2023-07-20T01:20:28;27.50;81.50
36424;DHT22;22458;45.328;9.514;2023-07-20T01:23:22;27.60;81.50
36424;DHT22;22458;45.328;9.514;2023-07-20T01:26:27;27.60;81.50
36424;DHT22;22458;45.328;9.514;2023-07-20T01:29:31;27.60;81.60
36424;DHT22;22458;45.328;9.514;2023-07-20T01:31:54;27.50;81.60
36424;DHT22;22458;45.328;9.514;2023-07-20T01:34:22;27.50;81.70
36424;DHT22;22458;45.328;9.514;2023-07-20T01:36:50;27.50;81.90
36424;DHT22;22458;45.328;9.514;2023-07-20T01:39:19;27.50;81.90
36424;DHT22;22458;45.328;9.514;2023-07-20T01:41:46;27.50;81.80
36424;DHT22;22458;45.328;9.514;2023-07-20T01:44:13;27.50;81.80
36424;DHT22;22458;45.328;9.514;2023-07-20T01:46:38;27.60;81.90
36424;DHT22;22458;45.328;9.514;2023-07-20T01:49:04;27.60;81.80
36424;DHT22;22458;45.328;9.514;2023-07-20T01:51:31;27.60;81.80
36424;DHT22;22458;45.328;9.514;2023-07-20T01:53:57;27.60;81.90
36424;DHT22;22458;45.328;9.514;2023-07-20T01:56:22;27.60;82.00
36424;DHT22;22458;45.328;9.514;2023-07-20T01:58:51;27.50;82.10
36424;DHT22;22458;45.328;9.514;2023-07-20T02:01:16;27.50;82.40
36424;DHT22;22458;45.328;9.514;2023-07-20T02:03:42;27.40;82.70
36424;DHT22;22458;45.328;9.514;2023-07-20T02:06:08;27.30;82.90
36424;DHT22;22458;45.328;9.514;2023-07-20T02:08:34;27.20;83.10
36424;DHT22;22458;45.328;9.514;2023-07-20T02:10:59;27.20;83.40
36424;DHT22;22458;45.328;9.514;2023-07-20T02:13:25;27.20;83.40
36424;DHT22;22458;45.328;9.514;2023-07-20T02:15:51;27.20;83.40
36424;DHT22;22458;45.328;9.514;2023-07-20T02:18:17;27.20;83.50
36424;DHT22;22458;45.328;9.514;2023-07-20T02:20:42;27.10;83.80
36424;DHT22;22458;45.328;9.514;2023-07-20T02:23:09;27.00;84.00
36424;DHT22;22458;45.328;9.514;2023-07-20T02:25:35;27.10;84.20
36424;DHT22;22458;45.328;9.514;2023-07-20T02:28:00;27.00;84.20
36424;DHT22;22458;45.328;9.514;2023-07-20T02:30:26;27.10;84.50
36424;DHT22;22458;45.328;9.514;2023-07-20T02:32:53;27.00;84.60
36424;DHT22;22458;45.328;9.514;2023-07-20T02:35:18;26.90;84.70
36424;DHT22;22458;45.328;9.514;2023-07-20T02:37:44;26.90;84.90
36424;DHT22;22458;45.328;9.514;2023-07-20T02:40:11;26.90;85.00
36424;DHT22;22458;45.328;9.514;2023-07-20T02:42:36;26.80;85.30
36424;DHT22;22458;45.328;9.514;2023-07-20T02:45:03;26.80;85.60
36424;DHT22;22458;45.328;9.514;2023-07-20T02:47:30;26.80;85.60
36424;DHT22;22458;45.328;9.514;2023-07-20T02:49:56;26.80;85.50
36424;DHT22;22458;45.328;9.514;2023-07-20T02:52:22;26.80;85.50
36424;DHT22;22458;45.328;9.514;2023-07-20T02:54:48;26.80;85.70
36424;DHT22;22458;45.328;9.514;2023-07-20T02:57:14;26.80;85.60
36424;DHT22;22458;45.328;9.514;2023-07-20T02:59:40;26.80;85.50
36424;DHT22;22458;45.328;9.514;2023-07-20T03:02:06;26.80;85.50
36424;DHT22;22458;45.328;9.514;2023-07-20T03:04:35;26.80;85.70
36424;DHT22;22458;45.328;9.514;2023-07-20T03:07:05;26.80;85.80
36424;DHT22;22458;45.328;9.514;2023-07-20T03:09:31;26.70;85.90
36424;DHT22;22458;45.328;9.514;2023-07-20T03:11:56;26.70;86.00
36424;DHT22;22458;45.328;9.514;2023-07-20T03:14:22;26.70;86.10
36424;DHT22;22458;45.328;9.514;2023-07-20T03:16:49;26.70;86.10
36424;DHT22;22458;45.328;9.514;2023-07-20T03:19:15;26.70;86.10
36424;DHT22;22458;45.328;9.514;2023-07-20T03:21:41;26.70;86.00
36424;DHT22;22458;45.328;9.514;2023-07-20T03:24:08;26.70;86.10
36424;DHT22;22458;45.328;9.514;2023-07-20T03:26:35;26.70;86.20
36424;DHT22;22458;45.328;9.514;2023-07-20T03:29:01;26.70;86.20
36424;DHT22;22458;45.328;9.514;2023-07-20T03:31:27;26.60;86.50
36424;DHT22;22458;45.328;9.514;2023-07-20T03:33:52;26.60;86.50
36424;DHT22;22458;45.328;9.514;2023-07-20T03:36:18;26.50;86.70
36424;DHT22;22458;45.328;9.514;2023-07-20T03:38:44;26.50;86.90
36424;DHT22;22458;45.328;9.514;2023-07-20T03:41:10;26.50;87.00
36424;DHT22;22458;45.328;9.514;2023-07-20T03:43:37;26.50;87.20
36424;DHT22;22458;45.328;9.514;2023-07-20T03:46:03;26.50;87.10
36424;DHT22;22458;45.328;9.514;2023-07-20T03:48:33;26.50;87.20
36424;DHT22;22458;45.328;9.514;2023-07-20T03:50:59;26.50;87.10
36424;DHT22;22458;45.328;9.514;2023-07-20T03:53:26;26.50;87.00
36424;DHT22;22458;45.328;9.514;2023-07-20T03:55:52;26.50;87.20
36424;DHT22;22458;45.328;9.514;2023-07-20T03:58:19;26.50;87.30
36424;DHT22;22458;45.328;9.514;2023-07-20T04:00:46;26.40;87.50
36424;DHT22;22458;45.328;9.514;2023-07-20T04:03:13;26.40;87.60
36424;DHT22;22458;45.328;9.514;2023-07-20T04:05:39;26.30;87.70
36424;DHT22;22458;45.328;9.514;2023-07-20T04:08:05;26.40;87.70
36424;DHT22;22458;45.328;9.514;2023-07-20T04:10:30;26.30;87.80
36424;DHT22;22458;45.328;9.514;2023-07-20T04:12:56;26.40;87.80
36424;DHT22;22458;45.328;9.514;2023-07-20T04:15:22;26.30;87.80
36424;DHT22;22458;45.328;9.514;2023-07-20T04:17:49;26.40;87.90
36424;DHT22;22458;45.328;9.514;2023-07-20T04:20:15;26.30;87.90
36424;DHT22;22458;45.328;9.514;2023-07-20T04:22:44;26.30;88.00
36424;DHT22;22458;45.328;9.514;2023-07-20T04:25:12;26.30;87.90
36424;DHT22;22458;45.328;9.514;2023-07-20T04:27:38;26.40;88.50
36424;DHT22;22458;45.328;9.514;2023-07-20T04:30:06;26.40;87.90
36424;DHT22;22458;45.328;9.514;2023-07-20T04:32:32;26.40;87.90
36424;DHT22;22458;45.328;9.514;2023-07-20T04:35:00;26.40;87.60
36424;DHT22;22458;45.328;9.514;2023-07-20T04:37:27;26.40;87.90
36424;DHT22;22458;45.328;9.514;2023-07-20T04:39:53;26.40;88.00
36424;DHT22;22458;45.328;9.514;2023-07-20T04:42:19;26.40;88.00
36424;DHT22;22458;45.328;9.514;2023-07-20T04:44:46;26.50;88.10
36424;DHT22;22458;45.328;9.514;2023-07-20T04:47:11;26.50;88.00
36424;DHT22;22458;45.328;9.514;2023-07-20T04:49:38;26.40;88.10
36424;DHT22;22458;45.328;9.514;2023-07-20T04:52:05;26.40;88.30
36424;DHT22;22458;45.328;9.514;2023-07-20T04:54:31;26.40;88.30
36424;DHT22;22458;45.328;9.514;2023-07-20T04:56:57;26.40;88.40
36424;DHT22;22458;45.328;9.514;2023-07-20T04:59:23;26.40;88.60
36424;DHT22;22458;45.328;9.514;2023-07-20T05:01:49;26.40;88.60
36424;DHT22;22458;45.328;9.514;2023-07-20T05:04:16;26.40;88.60
36424;DHT22;22458;45.328;9.514;2023-07-20T05:06:42;26.40;88.60
36424;DHT22;22458;45.328;9.514;2023-07-20T05:09:08;26.40;88.70
36424;DHT22;22458;45.328;9.514;2023-07-20T05:11:34;26.40;88.60
36424;DHT22;22458;45.328;9.514;2023-07-20T05:14:00;26.40;88.70
36424;DHT22;22458;45.328;9.514;2023-07-20T05:16:27;26.50;88.70
36424;DHT22;22458;45.328;9.514;2023-07-20T05:18:54;26.50;88.50
36424;DHT22;22458;45.328;9.514;2023-07-20T05:21:22;26.50;88.50
36424;DHT22;22458;45.328;9.514;2023-07-20T05:23:48;26.50;88.50
36424;DHT22;22458;45.328;9.514;2023-07-20T05:26:14;26.50;88.60
36424;DHT22;22458;45.328;9.514;2023-07-20T05:28:40;26.60;88.60
36424;DHT22;22458;45.328;9.514;2023-07-20T05:31:06;26.60;88.40
36424;DHT22;22458;45.328;9.514;2023-07-20T05:33:32;26.60;88.50
36424;DHT22;22458;45.328;9.514;2023-07-20T05:35:57;26.60;88.40
36424;DHT22;22458;45.328;9.514;2023-07-20T05:38:23;26.60;88.30
36424;DHT22;22458;45.328;9.514;2023-07-20T05:40:49;26.60;88.30
36424;DHT22;22458;45.328;9.514;2023-07-20T05:43:15;26.60;88.20
36424;DHT22;22458;45.328;9.514;2023-07-20T05:45:44;26.60;88.30
36424;DHT22;22458;45.328;9.514;2023-07-20T05:48:10;26.60;88.50
36424;DHT22;22458;45.328;9.514;2023-07-20T05:50:46;26.60;88.70
36424;DHT22;22458;45.328;9.514;2023-07-20T05:53:12;26.60;89.00
36424;DHT22;22458;45.328;9.514;2023-07-20T05:55:37;26.60;89.20
36424;DHT22;22458;45.328;9.514;2023-07-20T05:58:04;26.50;89.30
36424;DHT22;22458;45.328;9.514;2023-07-20T06:00:30;26.40;89.80
36424;DHT22;22458;45.328;9.514;2023-07-20T06:02:56;26.40;89.70
36424;DHT22;22458;45.328;9.514;2023-07-20T06:05:22;26.40;89.70
36424;DHT22;22458;45.328;9.514;2023-07-20T06:07:49;26.20;90.00
36424;DHT22;22458;45.328;9.514;2023-07-20T06:10:15;26.00;90.20
36424;DHT22;22458;45.328;9.514;2023-07-20T06:12:41;26.00;90.30
36424;DHT22;22458;45.328;9.514;2023-07-20T06:15:33;26.20;90.30
36424;DHT22;22458;45.328;9.514;2023-07-20T06:18:02;26.10;90.20
36424;DHT22;22458;45.328;9.514;2023-07-20T06:20:29;26.10;90.30
36424;DHT22;22458;45.328;9.514;2023-07-20T06:22:55;26.30;90.20
36424;DHT22;22458;45.328;9.514;2023-07-20T06:25:21;26.40;90.00
36424;DHT22;22458;45.328;9.514;2023-07-20T06:27:48;26.50;89.80
36424;DHT22;22458;45.328;9.514;2023-07-20T06:30:14;26.70;89.50
36424;DHT22;22458;45.328;9.514;2023-07-20T06:32:40;26.80;89.30
36424;DHT22;22458;45.328;9.514;2023-07-20T06:35:06;26.80;89.20
36424;DHT22;22458;45.328;9.514;2023-07-20T06:37:32;26.90;89.20
36424;DHT22;22458;45.328;9.514;2023-07-20T06:39:58;26.80;88.90
36424;DHT22;22458;45.328;9.514;2023-07-20T06:42:24;26.80;89.00
36424;DHT22;22458;45.328;9.514;2023-07-20T06:44:49;26.70;89.00
36424;DHT22;22458;45.328;9.514;2023-07-20T06:47:15;26.80;89.00
36424;DHT22;22458;45.328;9.514;2023-07-20T06:49:41;27.00;88.90
36424;DHT22;22458;45.328;9.514;2023-07-20T06:52:07;27.10;88.70
36424;DHT22;22458;45.328;9.514;2023-07-20T06:54:33;27.10;88.70
36424;DHT22;22458;45.328;9.514;2023-07-20T06:56:58;27.10;88.70
36424;DHT22;22458;45.328;9.514;2023-07-20T06:59:25;27.20;88.60
36424;DHT22;22458;45.328;9.514;2023-07-20T07:01:51;27.30;88.50
36424;DHT22;22458;45.328;9.514;2023-07-20T07:04:16;27.30;88.10
36424;DHT22;22458;45.328;9.514;2023-07-20T07:06:42;27.30;88.20
36424;DHT22;22458;45.328;9.514;2023-07-20T07:09:08;27.30;88.00
36424;DHT22;22458;45.328;9.514;2023-07-20T07:11:34;27.30;87.80
36424;DHT22;22458;45.328;9.514;2023-07-20T07:14:00;27.40;87.70
36424;DHT22;22458;45.328;9.514;2023-07-20T07:16:25;27.50;87.40
36424;DHT22;22458;45.328;9.514;2023-07-20T07:18:51;27.60;87.70
36424;DHT22;22458;45.328;9.514;2023-07-20T07:21:17;27.60;86.70
36424;DHT22;22458;45.328;9.514;2023-07-20T07:23:43;27.70;86.20
36424;DHT22;22458;45.328;9.514;2023-07-20T07:26:09;27.80;85.80
36424;DHT22;22458;45.328;9.514;2023-07-20T07:28:37;27.90;85.70
36424;DHT22;22458;45.328;9.514;2023-07-20T07:31:06;27.90;85.50
36424;DHT22;22458;45.328;9.514;2023-07-20T07:33:32;28.00;85.80
36424;DHT22;22458;45.328;9.514;2023-07-20T07:35:58;28.10;85.60
36424;DHT22;22458;45.328;9.514;2023-07-20T07:38:24;28.20;85.30
36424;DHT22;22458;45.328;9.514;2023-07-20T07:40:49;28.30;84.90
36424;DHT22;22458;45.328;9.514;2023-07-20T07:43:15;28.40;84.80
36424;DHT22;22458;45.328;9.514;2023-07-20T07:45:41;28.50;84.90
36424;DHT22;22458;45.328;9.514;2023-07-20T07:48:07;28.60;84.60
36424;DHT22;22458;45.328;9.514;2023-07-20T07:50:34;28.70;84.20
36424;DHT22;22458;45.328;9.514;2023-07-20T07:53:00;28.80;84.00
36424;DHT22;22458;45.328;9.514;2023-07-20T07:55:26;28.90;83.80
36424;DHT22;22458;45.328;9.514;2023-07-20T07:57:52;29.00;83.50
36424;DHT22;22458;45.328;9.514;2023-07-20T08:00:18;29.10;83.50
36424;DHT22;22458;45.328;9.514;2023-07-20T08:02:45;29.20;83.40
36424;DHT22;22458;45.328;9.514;2023-07-20T08:05:12;29.30;83.10
36424;DHT22;22458;45.328;9.514;2023-07-20T08:07:38;29.40;82.70
36424;DHT22;22458;45.328;9.514;2023-07-20T08:10:04;29.50;82.20
36424;DHT22;22458;45.328;9.514;2023-07-20T08:12:30;29.50;81.90
36424;DHT22;22458;45.328;9.514;2023-07-20T08:14:56;29.50;81.60
36424;DHT22;22458;45.328;9.514;2023-07-20T08:17:22;29.50;81.50
36424;DHT22;22458;45.328;9.514;2023-07-20T08:19:48;29.50;81.20
36424;DHT22;22458;45.328;9.514;2023-07-20T08:22:13;29.50;80.80
36424;DHT22;22458;45.328;9.514;2023-07-20T08:24:40;29.50;80.60
36424;DHT22;22458;45.328;9.514;2023-07-20T08:27:06;29.70;80.50
36424;DHT22;22458;45.328;9.514;2023-07-20T08:29:32;29.70;80.00
36424;DHT22;22458;45.328;9.514;2023-07-20T08:31:58;29.70;79.30
36424;DHT22;22458;45.328;9.514;2023-07-20T08:34:23;29.70;78.70
36424;DHT22;22458;45.328;9.514;2023-07-20T08:36:49;29.70;78.00
36424;DHT22;22458;45.328;9.514;2023-07-20T08:39:15;29.80;78.00
36424;DHT22;22458;45.328;9.514;2023-07-20T08:41:42;29.90;78.10
36424;DHT22;22458;45.328;9.514;2023-07-20T08:44:10;30.00;77.90
36424;DHT22;22458;45.328;9.514;2023-07-20T08:46:38;30.10;77.80
36424;DHT22;22458;45.328;9.514;2023-07-20T08:49:05;30.20;77.70
36424;DHT22;22458;45.328;9.514;2023-07-20T08:51:32;30.30;77.70
36424;DHT22;22458;45.328;9.514;2023-07-20T08:53:58;30.40;77.60
36424;DHT22;22458;45.328;9.514;2023-07-20T08:56:25;30.50;77.60
36424;DHT22;22458;45.328;9.514;2023-07-20T08:58:53;30.60;77.40
36424;DHT22;22458;45.328;9.514;2023-07-20T09:01:22;30.70;77.30
36424;DHT22;22458;45.328;9.514;2023-07-20T09:03:48;30.80;76.70
36424;DHT22;22458;45.328;9.514;2023-07-20T09:06:15;30.80;76.20
36424;DHT22;22458;45.328;9.514;2023-07-20T09:08:41;30.80;76.40
36424;DHT22;22458;45.328;9.514;2023-07-20T09:11:10;30.90;76.30
36424;DHT22;22458;45.328;9.514;2023-07-20T09:13:37;30.90;76.40
36424;DHT22;22458;45.328;9.514;2023-07-20T09:16:03;31.00;76.60
36424;DHT22;22458;45.328;9.514;2023-07-20T09:18:32;31.10;76.10
36424;DHT22;22458;45.328;9.514;2023-07-20T09:21:02;31.20;75.60
36424;DHT22;22458;45.328;9.514;2023-07-20T09:25:58;31.20;74.20
36424;DHT22;22458;45.328;9.514;2023-07-20T09:28:24;31.20;74.10
36424;DHT22;22458;45.328;9.514;2023-07-20T09:30:50;31.20;73.80
36424;DHT22;22458;45.328;9.514;2023-07-20T09:33:20;31.30;73.90
36424;DHT22;22458;45.328;9.514;2023-07-20T09:35:46;31.50;74.00
36424;DHT22;22458;45.328;9.514;2023-07-20T09:38:14;31.50;74.20
36424;DHT22;22458;45.328;9.514;2023-07-20T09:40:41;31.50;73.80
36424;DHT22;22458;45.328;9.514;2023-07-20T09:43:10;31.60;74.20
36424;DHT22;22458;45.328;9.514;2023-07-20T09:45:41;31.70;74.30
36424;DHT22;22458;45.328;9.514;2023-07-20T09:48:08;31.80;74.20
36424;DHT22;22458;45.328;9.514;2023-07-20T09:50:39;31.90;73.90
36424;DHT22;22458;45.328;9.514;2023-07-20T09:53:07;31.90;74.00
36424;DHT22;22458;45.328;9.514;2023-07-20T09:55:35;32.00;73.80
36424;DHT22;22458;45.328;9.514;2023-07-20T09:58:01;32.20;73.80
36424;DHT22;22458;45.328;9.514;2023-07-20T10:00:28;32.20;73.30
36424;DHT22;22458;45.328;9.514;2023-07-20T10:02:55;32.30;73.70
36424;DHT22;22458;45.328;9.514;2023-07-20T10:05:21;32.30;73.30
36424;DHT22;22458;45.328;9.514;2023-07-20T10:07:50;32.40;73.20
36424;DHT22;22458;45.328;9.514;2023-07-20T10:10:17;32.50;73.00
36424;DHT22;22458;45.328;9.514;2023-07-20T10:12:46;32.60;72.60
36424;DHT22;22458;45.328;9.514;2023-07-20T10:20:32;32.80;71.80
36424;DHT22;22458;45.328;9.514;2023-07-20T10:22:59;32.90;71.80
36424;DHT22;22458;45.328;9.514;2023-07-20T10:25:26;32.90;71.80
36424;DHT22;22458;45.328;9.514;2023-07-20T10:27:53;33.00;71.70
36424;DHT22;22458;45.328;9.514;2023-07-20T10:30:20;32.90;71.10
36424;DHT22;22458;45.328;9.514;2023-07-20T10:32:47;33.00;71.20
36424;DHT22;22458;45.328;9.514;2023-07-20T10:35:17;33.10;70.80
36424;DHT22;22458;45.328;9.514;2023-07-20T10:40:33;33.20;70.20
36424;DHT22;22458;45.328;9.514;2023-07-20T10:42:59;33.30;69.60
36424;DHT22;22458;45.328;9.514;2023-07-20T10:45:50;33.40;69.50
36424;DHT22;22458;45.328;9.514;2023-07-20T10:48:20;33.50;68.40
36424;DHT22;22458;45.328;9.514;2023-07-20T10:51:12;33.60;68.10
36424;DHT22;22458;45.328;9.514;2023-07-20T10:53:40;33.70;67.30
36424;DHT22;22458;45.328;9.514;2023-07-20T10:56:13;33.70;67.20
36424;DHT22;22458;45.328;9.514;2023-07-20T10:58:42;33.90;66.90
36424;DHT22;22458;45.328;9.514;2023-07-20T11:01:08;33.90;67.10
36424;DHT22;22458;45.328;9.514;2023-07-20T11:03:37;33.90;66.90
36424;DHT22;22458;45.328;9.514;2023-07-20T11:09:15;34.10;66.80
36424;DHT22;22458;45.328;9.514;2023-07-20T11:11:47;34.10;66.80
36424;DHT22;22458;45.328;9.514;2023-07-20T11:14:26;34.20;67.00
36424;DHT22;22458;45.328;9.514;2023-07-20T11:16:52;34.20;66.70
36424;DHT22;22458;45.328;9.514;2023-07-20T11:19:23;34.20;66.80
36424;DHT22;22458;45.328;9.514;2023-07-20T11:21:53;34.30;66.60
36424;DHT22;22458;45.328;9.514;2023-07-20T11:24:19;34.30;66.30
36424;DHT22;22458;45.328;9.514;2023-07-20T11:26:47;34.30;66.20
36424;DHT22;22458;45.328;9.514;2023-07-20T11:29:14;34.30;66.10
36424;DHT22;22458;45.328;9.514;2023-07-20T11:31:42;34.40;66.20
36424;DHT22;22458;45.328;9.514;2023-07-20T11:34:11;34.60;66.10
36424;DHT22;22458;45.328;9.514;2023-07-20T11:36:50;34.60;65.80
36424;DHT22;22458;45.328;9.514;2023-07-20T11:39:18;34.70;65.70
36424;DHT22;22458;45.328;9.514;2023-07-20T11:41:49;34.70;65.60
36424;DHT22;22458;45.328;9.514;2023-07-20T11:44:26;34.80;65.70
36424;DHT22;22458;45.328;9.514;2023-07-20T11:47:08;34.70;65.20
36424;DHT22;22458;45.328;9.514;2023-07-20T11:49:39;34.70;65.40
36424;DHT22;22458;45.328;9.514;2023-07-20T11:52:06;34.70;65.00
36424;DHT22;22458;45.328;9.514;2023-07-20T11:54:34;34.60;64.80
36424;DHT22;22458;45.328;9.514;2023-07-20T11:57:03;34.60;65.10
36424;DHT22;22458;45.328;9.514;2023-07-20T11:59:31;34.70;65.20
36424;DHT22;22458;45.328;9.514;2023-07-20T12:01:58;34.70;65.20
36424;DHT22;22458;45.328;9.514;2023-07-20T12:04:26;34.80;65.00
36424;DHT22;22458;45.328;9.514;2023-07-20T12:06:53;34.90;64.60
36424;DHT22;22458;45.328;9.514;2023-07-20T12:09:20;34.90;64.50
36424;DHT22;22458;45.328;9.514;2023-07-20T12:11:49;34.90;64.40
36424;DHT22;22458;45.328;9.514;2023-07-20T12:14:15;35.10;64.80
36424;DHT22;22458;45.328;9.514;2023-07-20T12:16:41;35.00;64.60
36424;DHT22;22458;45.328;9.514;2023-07-20T12:19:15;35.10;65.30
36424;DHT22;22458;45.328;9.514;2023-07-20T12:21:41;35.20;65.00
36424;DHT22;22458;45.328;9.514;2023-07-20T12:24:10;35.30;65.30
36424;DHT22;22458;45.328;9.514;2023-07-20T12:26:36;35.30;64.70
36424;DHT22;22458;45.328;9.514;2023-07-20T12:29:03;35.30;64.20
36424;DHT22;22458;45.328;9.514;2023-07-20T12:31:29;35.30;63.90
36424;DHT22;22458;45.328;9.514;2023-07-20T12:33:57;35.30;63.60
36424;DHT22;22458;45.328;9.514;2023-07-20T12:36:24;35.30;63.90
36424;DHT22;22458;45.328;9.514;2023-07-20T12:38:50;35.40;63.80
36424;DHT22;22458;45.328;9.514;2023-07-20T12:41:16;35.40;63.20
36424;DHT22;22458;45.328;9.514;2023-07-20T12:43:42;35.40;62.50
36424;DHT22;22458;45.328;9.514;2023-07-20T12:46:09;35.40;61.90
36424;DHT22;22458;45.328;9.514;2023-07-20T12:48:36;35.40;61.90
36424;DHT22;22458;45.328;9.514;2023-07-20T12:51:06;35.40;62.10
36424;DHT22;22458;45.328;9.514;2023-07-20T12:53:32;35.40;62.50
36424;DHT22;22458;45.328;9.514;2023-07-20T12:55:59;35.40;63.10
36424;DHT22;22458;45.328;9.514;2023-07-20T12:58:25;35.40;63.20
36424;DHT22;22458;45.328;9.514;2023-07-20T13:00:51;35.50;63.20
36424;DHT22;22458;45.328;9.514;2023-07-20T13:03:16;35.70;63.10
36424;DHT22;22458;45.328;9.514;2023-07-20T13:05:44;35.70;62.70
36424;DHT22;22458;45.328;9.514;2023-07-20T13:08:10;35.80;62.60
36424;DHT22;22458;45.328;9.514;2023-07-20T13:10:36;35.70;62.80
36424;DHT22;22458;45.328;9.514;2023-07-20T13:13:02;35.80;62.80
36424;DHT22;22458;45.328;9.514;2023-07-20T13:15:44;35.80;63.30
36424;DHT22;22458;45.328;9.514;2023-07-20T13:18:11;35.80;62.60
36424;DHT22;22458;45.328;9.514;2023-07-20T13:20:37;35.80;62.40
36424;DHT22;22458;45.328;9.514;2023-07-20T13:23:04;35.80;62.10
36424;DHT22;22458;45.328;9.514;2023-07-20T13:25:30;35.80;62.20
36424;DHT22;22458;45.328;9.514;2023-07-20T13:27:56;35.90;62.50
36424;DHT22;22458;45.328;9.514;2023-07-20T13:30:22;36.00;62.60
36424;DHT22;22458;45.328;9.514;2023-07-20T13:32:47;36.00;62.40
36424;DHT22;22458;45.328;9.514;2023-07-20T13:35:13;36.00;62.70
36424;DHT22;22458;45.328;9.514;2023-07-20T13:37:39;36.00;62.60
36424;DHT22;22458;45.328;9.514;2023-07-20T13:40:06;36.00;62.20
36424;DHT22;22458;45.328;9.514;2023-07-20T13:42:32;36.00;62.50
36424;DHT22;22458;45.328;9.514;2023-07-20T13:44:58;36.00;62.60
36424;DHT22;22458;45.328;9.514;2023-07-20T13:47:24;36.00;62.30
36424;DHT22;22458;45.328;9.514;2023-07-20T13:49:50;36.10;62.30
36424;DHT22;22458;45.328;9.514;2023-07-20T13:52:18;36.10;62.60
36424;DHT22;22458;45.328;9.514;2023-07-20T13:54:44;36.20;62.50
36424;DHT22;22458;45.328;9.514;2023-07-20T13:57:10;36.20;63.30
36424;DHT22;22458;45.328;9.514;2023-07-20T13:59:36;36.10;62.70
36424;DHT22;22458;45.328;9.514;2023-07-20T14:02:02;36.10;62.80
36424;DHT22;22458;45.328;9.514;2023-07-20T14:04:29;36.20;62.80
36424;DHT22;22458;45.328;9.514;2023-07-20T14:06:54;36.20;62.80
36424;DHT22;22458;45.328;9.514;2023-07-20T14:09:20;36.10;62.60
36424;DHT22;22458;45.328;9.514;2023-07-20T14:11:46;36.20;62.70
36424;DHT22;22458;45.328;9.514;2023-07-20T14:14:11;36.10;62.60
36424;DHT22;22458;45.328;9.514;2023-07-20T14:16:37;36.10;62.60
36424;DHT22;22458;45.328;9.514;2023-07-20T14:19:03;36.20;62.60
36424;DHT22;22458;45.328;9.514;2023-07-20T14:21:30;36.30;63.00
36424;DHT22;22458;45.328;9.514;2023-07-20T14:23:56;36.30;62.60
36424;DHT22;22458;45.328;9.514;2023-07-20T14:26:23;36.30;62.30
36424;DHT22;22458;45.328;9.514;2023-07-20T14:28:49;36.30;62.00
36424;DHT22;22458;45.328;9.514;2023-07-20T14:31:15;36.30;62.00
36424;DHT22;22458;45.328;9.514;2023-07-20T14:33:41;36.40;61.70
36424;DHT22;22458;45.328;9.514;2023-07-20T14:36:06;36.40;61.30
36424;DHT22;22458;45.328;9.514;2023-07-20T14:38:34;36.40;61.20
36424;DHT22;22458;45.328;9.514;2023-07-20T14:41:00;36.30;61.30
36424;DHT22;22458;45.328;9.514;2023-07-20T14:43:26;36.40;61.20
36424;DHT22;22458;45.328;9.514;2023-07-20T14:45:52;36.50;61.20
36424;DHT22;22458;45.328;9.514;2023-07-20T14:48:17;36.70;61.50
36424;DHT22;22458;45.328;9.514;2023-07-20T14:50:43;36.80;61.40
36424;DHT22;22458;45.328;9.514;2023-07-20T14:53:15;36.90;61.20
36424;DHT22;22458;45.328;9.514;2023-07-20T14:55:42;36.90;61.10
36424;DHT22;22458;45.328;9.514;2023-07-20T14:58:08;36.90;61.40
36424;DHT22;22458;45.328;9.514;2023-07-20T15:00:34;36.80;60.70
36424;DHT22;22458;45.328;9.514;2023-07-20T15:03:00;36.70;60.70
36424;DHT22;22458;45.328;9.514;2023-07-20T15:05:26;36.70;60.80
36424;DHT22;22458;45.328;9.514;2023-07-20T15:07:52;36.70;60.80
36424;DHT22;22458;45.328;9.514;2023-07-20T15:10:18;36.60;61.00
36424;DHT22;22458;45.328;9.514;2023-07-20T15:12:44;36.60;61.00
36424;DHT22;22458;45.328;9.514;2023-07-20T15:15:14;36.60;61.20
36424;DHT22;22458;45.328;9.514;2023-07-20T15:17:41;36.60;60.90
36424;DHT22;22458;45.328;9.514;2023-07-20T15:20:09;36.60;60.90
36424;DHT22;22458;45.328;9.514;2023-07-20T15:22:35;36.60;60.90
36424;DHT22;22458;45.328;9.514;2023-07-20T15:25:05;36.60;60.90
36424;DHT22;22458;45.328;9.514;2023-07-20T15:27:31;36.60;61.00
36424;DHT22;22458;45.328;9.514;2023-07-20T15:29:57;36.60;61.10
36424;DHT22;22458;45.328;9.514;2023-07-20T15:32:22;36.60;60.80
36424;DHT22;22458;45.328;9.514;2023-07-20T15:34:48;36.60;61.20
36424;DHT22;22458;45.328;9.514;2023-07-20T15:37:14;36.60;60.70
36424;DHT22;22458;45.328;9.514;2023-07-20T15:39:40;36.70;60.50
36424;DHT22;22458;45.328;9.514;2023-07-20T15:42:07;36.70;60.10
36424;DHT22;22458;45.328;9.514;2023-07-20T15:44:33;36.60;59.80